Glendon, Canada
Current Conditions -  °F | °C
As of 9:00 PM on Tuesday 21 Oct 2014 (Local Time) from CYOD Reporting Station
Broken Clouds Broken Clouds  
Wind Chill: 46°   Ceiling: 21000
Heat Index: 46°   Visibility: 15mi
Dew Point: 39°   Wind: 2mph
Humidity: 76%   Direction: 270°W
Pressure: 29.68"   Gusts: NA
Location:  54.25°N, 111.15°W
Report Text: CYOD 220300Z 27002KT 15SM BKN210 08/04 A2968 RMK CI3 SLP070
Loading
Personal Weather Stations






























Interactive Weather Map
Tropical Storm Tracking
New forecast layout! Learn more

10-Day Weather Forecast

Advertisements
Track Severe Weather on mobile